sensor_id;sensor_type;location;lat;lon;timestamp;P1;durP1;ratioP1;P2;durP2;ratioP2
61135;SDS011;47021;51.340;12.432;2022-08-19T00:01:32;43.72;;;27.75;;
61135;SDS011;47021;51.340;12.432;2022-08-19T00:04:07;44.03;;;28.27;;
61135;SDS011;47021;51.340;12.432;2022-08-19T00:06:49;37.97;;;29.95;;
61135;SDS011;47021;51.340;12.432;2022-08-19T00:12:06;41.80;;;29.15;;
61135;SDS011;47021;51.340;12.432;2022-08-19T00:17:33;38.22;;;29.30;;
61135;SDS011;47021;51.340;12.432;2022-08-19T00:20:04;42.10;;;30.52;;
61135;SDS011;47021;51.340;12.432;2022-08-19T00:22:30;47.92;;;29.98;;
61135;SDS011;47021;51.340;12.432;2022-08-19T00:25:11;68.38;;;29.98;;
61135;SDS011;47021;51.340;12.432;2022-08-19T00:27:43;63.78;;;29.92;;
61135;SDS011;47021;51.340;12.432;2022-08-19T00:30:16;42.50;;;31.85;;
61135;SDS011;47021;51.340;12.432;2022-08-19T00:32:56;44.38;;;32.22;;
61135;SDS011;47021;51.340;12.432;2022-08-19T00:35:25;50.53;;;32.90;;
61135;SDS011;47021;51.340;12.432;2022-08-19T00:37:52;49.00;;;33.97;;
61135;SDS011;47021;51.340;12.432;2022-08-19T00:40:25;44.35;;;33.85;;
61135;SDS011;47021;51.340;12.432;2022-08-19T00:48:17;48.33;;;31.88;;
61135;SDS011;47021;51.340;12.432;2022-08-19T00:50:44;44.25;;;33.22;;
61135;SDS011;47021;51.340;12.432;2022-08-19T00:53:14;39.83;;;32.33;;
61135;SDS011;47021;51.340;12.432;2022-08-19T00:55:45;50.55;;;33.50;;
61135;SDS011;47021;51.340;12.432;2022-08-19T00:58:14;48.20;;;34.67;;
61135;SDS011;47021;51.340;12.432;2022-08-19T01:03:35;50.30;;;34.28;;
61135;SDS011;47021;51.340;12.432;2022-08-19T01:06:13;52.22;;;33.80;;
61135;SDS011;47021;51.340;12.432;2022-08-19T01:08:45;48.50;;;34.42;;
61135;SDS011;47021;51.340;12.432;2022-08-19T01:11:16;52.93;;;35.40;;
61135;SDS011;47021;51.340;12.432;2022-08-19T01:13:43;45.95;;;34.92;;
61135;SDS011;47021;51.340;12.432;2022-08-19T01:18:59;54.47;;;36.60;;
61135;SDS011;47021;51.340;12.432;2022-08-19T01:24:11;64.00;;;38.75;;
61135;SDS011;47021;51.340;12.432;2022-08-19T01:35:24;56.25;;;38.33;;
61135;SDS011;47021;51.340;12.432;2022-08-19T01:37:55;51.08;;;38.25;;
61135;SDS011;47021;51.340;12.432;2022-08-19T01:40:30;50.88;;;36.70;;
61135;SDS011;47021;51.340;12.432;2022-08-19T01:42:57;49.80;;;36.08;;
61135;SDS011;47021;51.340;12.432;2022-08-19T01:45:36;56.95;;;40.35;;
61135;SDS011;47021;51.340;12.432;2022-08-19T01:48:09;61.65;;;39.38;;
61135;SDS011;47021;51.340;12.432;2022-08-19T01:50:39;57.35;;;41.53;;
61135;SDS011;47021;51.340;12.432;2022-08-19T01:53:21;54.90;;;39.40;;
61135;SDS011;47021;51.340;12.432;2022-08-19T01:55:46;55.42;;;38.58;;
61135;SDS011;47021;51.340;12.432;2022-08-19T01:58:32;62.87;;;39.90;;
61135;SDS011;47021;51.340;12.432;2022-08-19T02:01:06;58.47;;;39.63;;
61135;SDS011;47021;51.340;12.432;2022-08-19T02:03:33;53.88;;;39.85;;
61135;SDS011;47021;51.340;12.432;2022-08-19T02:06:00;52.38;;;36.75;;
61135;SDS011;47021;51.340;12.432;2022-08-19T02:11:02;56.38;;;39.55;;
61135;SDS011;47021;51.340;12.432;2022-08-19T02:13:30;55.15;;;38.65;;
61135;SDS011;47021;51.340;12.432;2022-08-19T02:15:56;59.42;;;39.10;;
61135;SDS011;47021;51.340;12.432;2022-08-19T02:18:22;55.65;;;39.20;;
61135;SDS011;47021;51.340;12.432;2022-08-19T02:20:59;54.42;;;40.60;;
61135;SDS011;47021;51.340;12.432;2022-08-19T02:23:36;70.20;;;41.65;;
61135;SDS011;47021;51.340;12.432;2022-08-19T02:26:08;55.45;;;38.03;;
61135;SDS011;47021;51.340;12.432;2022-08-19T02:28:34;55.33;;;39.17;;
61135;SDS011;47021;51.340;12.432;2022-08-19T02:31:12;45.83;;;35.97;;
61135;SDS011;47021;51.340;12.432;2022-08-19T02:33:39;48.72;;;36.25;;
61135;SDS011;47021;51.340;12.432;2022-08-19T02:36:16;46.22;;;34.83;;
61135;SDS011;47021;51.340;12.432;2022-08-19T02:41:35;41.92;;;32.75;;
61135;SDS011;47021;51.340;12.432;2022-08-19T02:44:02;41.25;;;31.88;;
61135;SDS011;47021;51.340;12.432;2022-08-19T02:46:34;44.72;;;32.17;;
61135;SDS011;47021;51.340;12.432;2022-08-19T02:49:01;40.35;;;32.33;;
61135;SDS011;47021;51.340;12.432;2022-08-19T02:51:37;41.67;;;30.92;;
61135;SDS011;47021;51.340;12.432;2022-08-19T02:56:56;43.38;;;32.50;;
61135;SDS011;47021;51.340;12.432;2022-08-19T02:59:23;38.97;;;31.30;;
61135;SDS011;47021;51.340;12.432;2022-08-19T03:01:50;37.20;;;30.65;;
61135;SDS011;47021;51.340;12.432;2022-08-19T03:04:18;39.08;;;29.48;;
61135;SDS011;47021;51.340;12.432;2022-08-19T03:06:44;38.03;;;29.63;;
61135;SDS011;47021;51.340;12.432;2022-08-19T03:09:20;41.80;;;30.30;;
61135;SDS011;47021;51.340;12.432;2022-08-19T03:11:46;37.60;;;27.38;;
61135;SDS011;47021;51.340;12.432;2022-08-19T03:14:11;30.55;;;26.83;;
61135;SDS011;47021;51.340;12.432;2022-08-19T03:16:53;31.83;;;25.70;;
61135;SDS011;47021;51.340;12.432;2022-08-19T03:19:25;31.77;;;24.67;;
61135;SDS011;47021;51.340;12.432;2022-08-19T03:21:53;34.42;;;25.67;;
61135;SDS011;47021;51.340;12.432;2022-08-19T03:30:03;31.48;;;24.17;;
61135;SDS011;47021;51.340;12.432;2022-08-19T03:32:29;34.50;;;24.00;;
61135;SDS011;47021;51.340;12.432;2022-08-19T03:34:55;30.58;;;23.42;;
61135;SDS011;47021;51.340;12.432;2022-08-19T03:37:22;29.10;;;23.80;;
61135;SDS011;47021;51.340;12.432;2022-08-19T03:39:49;27.70;;;23.58;;
61135;SDS011;47021;51.340;12.432;2022-08-19T03:45:07;28.13;;;24.00;;
61135;SDS011;47021;51.340;12.432;2022-08-19T03:47:32;29.20;;;24.45;;
61135;SDS011;47021;51.340;12.432;2022-08-19T03:49:57;27.83;;;23.05;;
61135;SDS011;47021;51.340;12.432;2022-08-19T03:55:14;36.33;;;24.00;;
61135;SDS011;47021;51.340;12.432;2022-08-19T03:57:39;31.02;;;23.08;;
61135;SDS011;47021;51.340;12.432;2022-08-19T04:00:22;28.33;;;21.90;;
61135;SDS011;47021;51.340;12.432;2022-08-19T04:05:27;23.67;;;20.25;;
61135;SDS011;47021;51.340;12.432;2022-08-19T04:08:00;33.65;;;23.63;;
61135;SDS011;47021;51.340;12.432;2022-08-19T04:10:36;29.05;;;23.45;;
61135;SDS011;47021;51.340;12.432;2022-08-19T04:13:15;29.10;;;22.00;;
61135;SDS011;47021;51.340;12.432;2022-08-19T04:21:39;23.92;;;20.80;;
61135;SDS011;47021;51.340;12.432;2022-08-19T04:24:07;25.13;;;19.65;;
61135;SDS011;47021;51.340;12.432;2022-08-19T04:26:35;25.02;;;20.35;;
61135;SDS011;47021;51.340;12.432;2022-08-19T04:29:05;29.13;;;21.70;;
61135;SDS011;47021;51.340;12.432;2022-08-19T04:31:35;26.05;;;22.17;;
61135;SDS011;47021;51.340;12.432;2022-08-19T04:34:17;28.75;;;21.90;;
61135;SDS011;47021;51.340;12.432;2022-08-19T04:36:45;31.52;;;23.40;;
61135;SDS011;47021;51.340;12.432;2022-08-19T04:39:16;29.80;;;24.15;;
61135;SDS011;47021;51.340;12.432;2022-08-19T04:41:45;31.85;;;26.00;;
61135;SDS011;47021;51.340;12.432;2022-08-19T04:44:23;33.22;;;23.70;;
61135;SDS011;47021;51.340;12.432;2022-08-19T04:46:49;36.40;;;28.27;;
61135;SDS011;47021;51.340;12.432;2022-08-19T04:49:15;35.00;;;27.42;;
61135;SDS011;47021;51.340;12.432;2022-08-19T04:51:54;35.00;;;28.00;;
61135;SDS011;47021;51.340;12.432;2022-08-19T04:54:26;40.33;;;28.33;;
61135;SDS011;47021;51.340;12.432;2022-08-19T04:56:57;43.80;;;29.55;;
61135;SDS011;47021;51.340;12.432;2022-08-19T04:59:41;110.60;;;68.18;;
61135;SDS011;47021;51.340;12.432;2022-08-19T05:05:08;37.28;;;28.55;;
61135;SDS011;47021;51.340;12.432;2022-08-19T05:07:40;31.20;;;27.83;;
61135;SDS011;47021;51.340;12.432;2022-08-19T05:13:08;31.98;;;28.45;;
61135;SDS011;47021;51.340;12.432;2022-08-19T05:15:34;37.33;;;30.80;;
61135;SDS011;47021;51.340;12.432;2022-08-19T05:18:06;37.42;;;30.15;;
61135;SDS011;47021;51.340;12.432;2022-08-19T05:20:32;37.10;;;31.37;;
61135;SDS011;47021;51.340;12.432;2022-08-19T05:23:03;44.78;;;33.15;;
61135;SDS011;47021;51.340;12.432;2022-08-19T05:25:38;44.50;;;33.60;;
61135;SDS011;47021;51.340;12.432;2022-08-19T05:28:04;41.30;;;34.55;;
61135;SDS011;47021;51.340;12.432;2022-08-19T05:30:44;44.20;;;33.33;;
61135;SDS011;47021;51.340;12.432;2022-08-19T05:33:23;44.10;;;35.80;;
61135;SDS011;47021;51.340;12.432;2022-08-19T05:35:55;47.95;;;36.40;;
61135;SDS011;47021;51.340;12.432;2022-08-19T05:38:31;46.90;;;35.87;;
61135;SDS011;47021;51.340;12.432;2022-08-19T05:40:59;46.70;;;37.25;;
61135;SDS011;47021;51.340;12.432;2022-08-19T05:43:30;48.67;;;36.58;;
61135;SDS011;47021;51.340;12.432;2022-08-19T05:48:50;45.80;;;36.53;;
61135;SDS011;47021;51.340;12.432;2022-08-19T05:54:07;53.58;;;39.05;;
61135;SDS011;47021;51.340;12.432;2022-08-19T05:56:35;48.72;;;39.38;;
61135;SDS011;47021;51.340;12.432;2022-08-19T05:59:03;234.48;;;136.88;;
61135;SDS011;47021;51.340;12.432;2022-08-19T06:01:37;56.03;;;43.05;;
61135;SDS011;47021;51.340;12.432;2022-08-19T06:04:14;53.35;;;40.20;;
61135;SDS011;47021;51.340;12.432;2022-08-19T06:06:40;55.88;;;40.42;;
61135;SDS011;47021;51.340;12.432;2022-08-19T06:09:11;57.80;;;40.15;;
61135;SDS011;47021;51.340;12.432;2022-08-19T06:11:38;45.75;;;38.53;;
61135;SDS011;47021;51.340;12.432;2022-08-19T06:14:11;50.75;;;39.45;;
61135;SDS011;47021;51.340;12.432;2022-08-19T06:16:40;55.38;;;38.88;;
61135;SDS011;47021;51.340;12.432;2022-08-19T06:19:07;44.55;;;37.85;;
61135;SDS011;47021;51.340;12.432;2022-08-19T06:21:37;49.97;;;38.53;;
61135;SDS011;47021;51.340;12.432;2022-08-19T06:24:05;47.55;;;37.58;;
61135;SDS011;47021;51.340;12.432;2022-08-19T06:26:33;49.90;;;37.92;;
61135;SDS011;47021;51.340;12.432;2022-08-19T06:28:59;51.13;;;36.45;;
61135;SDS011;47021;51.340;12.432;2022-08-19T06:31:26;54.65;;;38.30;;
61135;SDS011;47021;51.340;12.432;2022-08-19T06:33:54;48.17;;;37.97;;
61135;SDS011;47021;51.340;12.432;2022-08-19T06:36:27;50.10;;;35.60;;
61135;SDS011;47021;51.340;12.432;2022-08-19T06:38:58;39.83;;;34.50;;
61135;SDS011;47021;51.340;12.432;2022-08-19T06:41:30;50.78;;;37.28;;
61135;SDS011;47021;51.340;12.432;2022-08-19T06:43:56;44.50;;;35.77;;
61135;SDS011;47021;51.340;12.432;2022-08-19T06:46:23;48.67;;;35.78;;
61135;SDS011;47021;51.340;12.432;2022-08-19T06:48:50;49.28;;;37.17;;
61135;SDS011;47021;51.340;12.432;2022-08-19T06:51:23;58.20;;;37.83;;
61135;SDS011;47021;51.340;12.432;2022-08-19T06:53:51;56.05;;;40.00;;
61135;SDS011;47021;51.340;12.432;2022-08-19T06:56:19;54.95;;;40.63;;
61135;SDS011;47021;51.340;12.432;2022-08-19T06:58:47;55.90;;;41.05;;
61135;SDS011;47021;51.340;12.432;2022-08-19T07:04:06;52.17;;;38.58;;
61135;SDS011;47021;51.340;12.432;2022-08-19T07:06:36;61.53;;;43.28;;
61135;SDS011;47021;51.340;12.432;2022-08-19T07:09:05;63.90;;;44.17;;
61135;SDS011;47021;51.340;12.432;2022-08-19T07:11:31;62.25;;;43.78;;
61135;SDS011;47021;51.340;12.432;2022-08-19T07:13:56;60.50;;;44.15;;
61135;SDS011;47021;51.340;12.432;2022-08-19T07:16:28;60.67;;;42.53;;
61135;SDS011;47021;51.340;12.432;2022-08-19T07:18:55;64.70;;;43.22;;
61135;SDS011;47021;51.340;12.432;2022-08-19T07:21:24;55.33;;;40.35;;
61135;SDS011;47021;51.340;12.432;2022-08-19T07:23:53;57.33;;;40.20;;
61135;SDS011;47021;51.340;12.432;2022-08-19T07:26:27;60.25;;;41.83;;
61135;SDS011;47021;51.340;12.432;2022-08-19T07:28:56;62.33;;;41.70;;
61135;SDS011;47021;51.340;12.432;2022-08-19T07:31:34;67.95;;;41.30;;
61135;SDS011;47021;51.340;12.432;2022-08-19T07:33:59;55.80;;;39.75;;
61135;SDS011;47021;51.340;12.432;2022-08-19T07:36:27;59.47;;;39.57;;
61135;SDS011;47021;51.340;12.432;2022-08-19T07:39:00;63.58;;;40.30;;
61135;SDS011;47021;51.340;12.432;2022-08-19T07:41:29;56.67;;;40.17;;
61135;SDS011;47021;51.340;12.432;2022-08-19T07:43:56;59.47;;;39.05;;
61135;SDS011;47021;51.340;12.432;2022-08-19T07:46:24;59.33;;;38.33;;
61135;SDS011;47021;51.340;12.432;2022-08-19T07:49:02;52.35;;;37.75;;
61135;SDS011;47021;51.340;12.432;2022-08-19T07:51:31;56.90;;;37.92;;
61135;SDS011;47021;51.340;12.432;2022-08-19T07:53:56;59.20;;;38.63;;
61135;SDS011;47021;51.340;12.432;2022-08-19T07:56:23;59.05;;;39.10;;
61135;SDS011;47021;51.340;12.432;2022-08-19T07:59:07;59.60;;;38.65;;
61135;SDS011;47021;51.340;12.432;2022-08-19T08:04:23;52.50;;;35.70;;
61135;SDS011;47021;51.340;12.432;2022-08-19T08:09:43;48.55;;;36.72;;
61135;SDS011;47021;51.340;12.432;2022-08-19T08:12:13;48.90;;;34.53;;
61135;SDS011;47021;51.340;12.432;2022-08-19T08:14:50;50.05;;;35.63;;
61135;SDS011;47021;51.340;12.432;2022-08-19T08:17:18;44.08;;;34.05;;
61135;SDS011;47021;51.340;12.432;2022-08-19T08:19:46;50.92;;;34.35;;
61135;SDS011;47021;51.340;12.432;2022-08-19T08:22:14;42.47;;;32.55;;
61135;SDS011;47021;51.340;12.432;2022-08-19T08:24:53;49.22;;;36.00;;
61135;SDS011;47021;51.340;12.432;2022-08-19T08:30:19;95.95;;;61.97;;
61135;SDS011;47021;51.340;12.432;2022-08-19T08:32:47;44.22;;;29.85;;
61135;SDS011;47021;51.340;12.432;2022-08-19T08:35:15;42.80;;;32.28;;
61135;SDS011;47021;51.340;12.432;2022-08-19T08:37:57;41.72;;;31.67;;
61135;SDS011;47021;51.340;12.432;2022-08-19T08:46:06;43.65;;;32.55;;
61135;SDS011;47021;51.340;12.432;2022-08-19T08:48:53;45.28;;;32.97;;
61135;SDS011;47021;51.340;12.432;2022-08-19T08:51:57;42.10;;;33.50;;
61135;SDS011;47021;51.340;12.432;2022-08-19T08:54:35;44.92;;;32.03;;
61135;SDS011;47021;51.340;12.432;2022-08-19T08:57:15;42.28;;;31.02;;
61135;SDS011;47021;51.340;12.432;2022-08-19T08:59:45;40.55;;;31.20;;
61135;SDS011;47021;51.340;12.432;2022-08-19T09:02:14;42.70;;;30.77;;
61135;SDS011;47021;51.340;12.432;2022-08-19T09:04:47;36.20;;;29.63;;
61135;SDS011;47021;51.340;12.432;2022-08-19T09:07:22;39.80;;;29.65;;
61135;SDS011;47021;51.340;12.432;2022-08-19T09:09:58;42.63;;;30.38;;
61135;SDS011;47021;51.340;12.432;2022-08-19T09:15:16;37.60;;;28.58;;
61135;SDS011;47021;51.340;12.432;2022-08-19T09:18:02;46.50;;;29.65;;
61135;SDS011;47021;51.340;12.432;2022-08-19T09:20:29;44.33;;;28.27;;
61135;SDS011;47021;51.340;12.432;2022-08-19T09:25:48;35.17;;;26.73;;
61135;SDS011;47021;51.340;12.432;2022-08-19T09:28:13;39.38;;;26.27;;
61135;SDS011;47021;51.340;12.432;2022-08-19T09:30:40;47.15;;;27.70;;
61135;SDS011;47021;51.340;12.432;2022-08-19T09:35:50;41.83;;;27.95;;
61135;SDS011;47021;51.340;12.432;2022-08-19T09:38:28;42.92;;;28.63;;
61135;SDS011;47021;51.340;12.432;2022-08-19T09:41:04;33.58;;;28.08;;
61135;SDS011;47021;51.340;12.432;2022-08-19T09:43:33;39.00;;;27.77;;
61135;SDS011;47021;51.340;12.432;2022-08-19T09:45:59;37.55;;;27.85;;
61135;SDS011;47021;51.340;12.432;2022-08-19T09:48:26;38.28;;;29.45;;
61135;SDS011;47021;51.340;12.432;2022-08-19T09:50:51;39.80;;;28.83;;
61135;SDS011;47021;51.340;12.432;2022-08-19T09:53:16;38.63;;;28.97;;
61135;SDS011;47021;51.340;12.432;2022-08-19T09:55:49;37.60;;;28.30;;
61135;SDS011;47021;51.340;12.432;2022-08-19T09:58:15;47.15;;;29.13;;
61135;SDS011;47021;51.340;12.432;2022-08-19T10:00:58;36.40;;;28.75;;
61135;SDS011;47021;51.340;12.432;2022-08-19T10:03:28;35.15;;;26.70;;
61135;SDS011;47021;51.340;12.432;2022-08-19T10:05:57;41.50;;;28.17;;
61135;SDS011;47021;51.340;12.432;2022-08-19T10:08:36;33.20;;;25.10;;
61135;SDS011;47021;51.340;12.432;2022-08-19T10:11:03;36.30;;;24.50;;
61135;SDS011;47021;51.340;12.432;2022-08-19T10:13:30;39.45;;;23.77;;
61135;SDS011;47021;51.340;12.432;2022-08-19T10:16:08;33.28;;;24.85;;
61135;SDS011;47021;51.340;12.432;2022-08-19T10:18:35;30.42;;;22.63;;
61135;SDS011;47021;51.340;12.432;2022-08-19T10:21:07;31.33;;;22.27;;
61135;SDS011;47021;51.340;12.432;2022-08-19T10:23:34;35.17;;;21.23;;
61135;SDS011;47021;51.340;12.432;2022-08-19T10:26:04;29.92;;;21.77;;
61135;SDS011;47021;51.340;12.432;2022-08-19T10:28:41;24.85;;;20.70;;
61135;SDS011;47021;51.340;12.432;2022-08-19T10:31:12;32.38;;;21.95;;
61135;SDS011;47021;51.340;12.432;2022-08-19T10:33:50;26.33;;;19.70;;
61135;SDS011;47021;51.340;12.432;2022-08-19T10:36:19;27.75;;;19.45;;
61135;SDS011;47021;51.340;12.432;2022-08-19T10:38:53;23.60;;;19.23;;
61135;SDS011;47021;51.340;12.432;2022-08-19T10:41:22;23.15;;;18.35;;
61135;SDS011;47021;51.340;12.432;2022-08-19T10:43:54;24.80;;;19.13;;
61135;SDS011;47021;51.340;12.432;2022-08-19T10:46:23;22.15;;;17.92;;
61135;SDS011;47021;51.340;12.432;2022-08-19T10:48:50;26.63;;;18.70;;
61135;SDS011;47021;51.340;12.432;2022-08-19T10:51:17;27.08;;;18.25;;
61135;SDS011;47021;51.340;12.432;2022-08-19T10:53:45;23.45;;;16.58;;
61135;SDS011;47021;51.340;12.432;2022-08-19T10:56:19;19.67;;;17.60;;
61135;SDS011;47021;51.340;12.432;2022-08-19T11:01:47;17.95;;;16.05;;
61135;SDS011;47021;51.340;12.432;2022-08-19T11:04:12;24.20;;;17.02;;
61135;SDS011;47021;51.340;12.432;2022-08-19T11:06:41;20.85;;;15.80;;
61135;SDS011;47021;51.340;12.432;2022-08-19T11:09:07;20.58;;;15.35;;
61135;SDS011;47021;51.340;12.432;2022-08-19T11:11:41;20.13;;;15.88;;
61135;SDS011;47021;51.340;12.432;2022-08-19T11:14:12;18.63;;;14.63;;
61135;SDS011;47021;51.340;12.432;2022-08-19T11:16:48;25.42;;;16.48;;
61135;SDS011;47021;51.340;12.432;2022-08-19T11:19:16;20.80;;;15.10;;
61135;SDS011;47021;51.340;12.432;2022-08-19T11:21:44;20.85;;;16.05;;
61135;SDS011;47021;51.340;12.432;2022-08-19T11:24:18;22.13;;;15.25;;
61135;SDS011;47021;51.340;12.432;2022-08-19T11:26:47;21.48;;;14.07;;
61135;SDS011;47021;51.340;12.432;2022-08-19T11:29:16;18.55;;;13.40;;
61135;SDS011;47021;51.340;12.432;2022-08-19T11:31:45;16.77;;;13.77;;
61135;SDS011;47021;51.340;12.432;2022-08-19T11:34:13;19.38;;;13.70;;
61135;SDS011;47021;51.340;12.432;2022-08-19T11:36:41;19.67;;;13.15;;
61135;SDS011;47021;51.340;12.432;2022-08-19T11:39:17;16.30;;;12.65;;
61135;SDS011;47021;51.340;12.432;2022-08-19T11:44:29;14.75;;;12.25;;
61135;SDS011;47021;51.340;12.432;2022-08-19T11:46:55;20.07;;;12.10;;
61135;SDS011;47021;51.340;12.432;2022-08-19T11:49:20;21.58;;;13.07;;
61135;SDS011;47021;51.340;12.432;2022-08-19T11:51:46;14.90;;;11.37;;
61135;SDS011;47021;51.340;12.432;2022-08-19T11:54:14;18.52;;;10.95;;
61135;SDS011;47021;51.340;12.432;2022-08-19T11:56:41;15.90;;;11.98;;
61135;SDS011;47021;51.340;12.432;2022-08-19T11:59:06;16.33;;;11.23;;
61135;SDS011;47021;51.340;12.432;2022-08-19T12:01:33;12.60;;;10.27;;
61135;SDS011;47021;51.340;12.432;2022-08-19T12:04:01;16.80;;;10.90;;
61135;SDS011;47021;51.340;12.432;2022-08-19T12:06:37;12.05;;;10.63;;
61135;SDS011;47021;51.340;12.432;2022-08-19T12:09:06;12.68;;;11.05;;
61135;SDS011;47021;51.340;12.432;2022-08-19T12:11:33;13.90;;;11.10;;
61135;SDS011;47021;51.340;12.432;2022-08-19T12:13:58;15.95;;;11.80;;
61135;SDS011;47021;51.340;12.432;2022-08-19T12:16:25;11.80;;;10.23;;
61135;SDS011;47021;51.340;12.432;2022-08-19T12:18:56;12.55;;;10.07;;
61135;SDS011;47021;51.340;12.432;2022-08-19T12:21:24;16.55;;;12.23;;
61135;SDS011;47021;51.340;12.432;2022-08-19T12:23:51;14.65;;;10.68;;
61135;SDS011;47021;51.340;12.432;2022-08-19T12:26:23;14.55;;;11.73;;
61135;SDS011;47021;51.340;12.432;2022-08-19T12:28:50;18.20;;;12.15;;
61135;SDS011;47021;51.340;12.432;2022-08-19T12:31:16;19.70;;;12.32;;
61135;SDS011;47021;51.340;12.432;2022-08-19T12:33:41;14.73;;;11.60;;
61135;SDS011;47021;51.340;12.432;2022-08-19T12:36:14;17.95;;;11.38;;
61135;SDS011;47021;51.340;12.432;2022-08-19T12:41:09;14.43;;;11.20;;
61135;SDS011;47021;51.340;12.432;2022-08-19T12:43:37;22.08;;;13.38;;
61135;SDS011;47021;51.340;12.432;2022-08-19T12:46:05;13.60;;;11.15;;
61135;SDS011;47021;51.340;12.432;2022-08-19T12:48:32;14.73;;;11.68;;
61135;SDS011;47021;51.340;12.432;2022-08-19T12:51:15;18.08;;;11.55;;
61135;SDS011;47021;51.340;12.432;2022-08-19T12:53:42;14.50;;;11.73;;
61135;SDS011;47021;51.340;12.432;2022-08-19T12:56:10;17.83;;;12.93;;
61135;SDS011;47021;51.340;12.432;2022-08-19T12:58:41;15.18;;;12.15;;
61135;SDS011;47021;51.340;12.432;2022-08-19T13:01:09;15.48;;;12.25;;
61135;SDS011;47021;51.340;12.432;2022-08-19T13:03:39;20.00;;;12.50;;
61135;SDS011;47021;51.340;12.432;2022-08-19T13:06:05;15.32;;;13.73;;
61135;SDS011;47021;51.340;12.432;2022-08-19T13:08:31;16.20;;;12.82;;
61135;SDS011;47021;51.340;12.432;2022-08-19T13:10:57;18.10;;;13.05;;
61135;SDS011;47021;51.340;12.432;2022-08-19T13:13:32;15.20;;;13.40;;
61135;SDS011;47021;51.340;12.432;2022-08-19T13:16:00;19.67;;;13.38;;
61135;SDS011;47021;51.340;12.432;2022-08-19T13:18:27;15.77;;;13.60;;
61135;SDS011;47021;51.340;12.432;2022-08-19T13:20:52;12.82;;;11.18;;
61135;SDS011;47021;51.340;12.432;2022-08-19T13:23:18;15.05;;;11.95;;
61135;SDS011;47021;51.340;12.432;2022-08-19T13:26:03;15.23;;;11.85;;
61135;SDS011;47021;51.340;12.432;2022-08-19T13:28:36;16.08;;;11.73;;
61135;SDS011;47021;51.340;12.432;2022-08-19T13:31:07;16.63;;;12.32;;
61135;SDS011;47021;51.340;12.432;2022-08-19T13:33:33;14.68;;;12.20;;
61135;SDS011;47021;51.340;12.432;2022-08-19T13:39:09;17.83;;;12.00;;
61135;SDS011;47021;51.340;12.432;2022-08-19T13:42:17;21.20;;;13.15;;
61135;SDS011;47021;51.340;12.432;2022-08-19T13:44:43;14.50;;;13.07;;
61135;SDS011;47021;51.340;12.432;2022-08-19T13:47:09;17.23;;;13.52;;
61135;SDS011;47021;51.340;12.432;2022-08-19T13:49:35;18.13;;;13.40;;
61135;SDS011;47021;51.340;12.432;2022-08-19T13:52:06;19.33;;;13.80;;
61135;SDS011;47021;51.340;12.432;2022-08-19T13:54:34;19.40;;;14.02;;
61135;SDS011;47021;51.340;12.432;2022-08-19T13:57:08;27.23;;;13.43;;
61135;SDS011;47021;51.340;12.432;2022-08-19T13:59:34;16.40;;;12.98;;
61135;SDS011;47021;51.340;12.432;2022-08-19T14:02:00;19.95;;;13.70;;
61135;SDS011;47021;51.340;12.432;2022-08-19T14:04:26;21.48;;;15.48;;
61135;SDS011;47021;51.340;12.432;2022-08-19T14:06:53;19.83;;;14.93;;
61135;SDS011;47021;51.340;12.432;2022-08-19T14:11:49;16.50;;;13.65;;
61135;SDS011;47021;51.340;12.432;2022-08-19T14:14:15;12.60;;;11.40;;
61135;SDS011;47021;51.340;12.432;2022-08-19T14:16:41;16.50;;;11.88;;
61135;SDS011;47021;51.340;12.432;2022-08-19T14:19:07;14.77;;;12.82;;
61135;SDS011;47021;51.340;12.432;2022-08-19T14:21:32;17.23;;;11.87;;
61135;SDS011;47021;51.340;12.432;2022-08-19T14:23:57;13.77;;;11.73;;
61135;SDS011;47021;51.340;12.432;2022-08-19T14:26:22;17.05;;;13.98;;
61135;SDS011;47021;51.340;12.432;2022-08-19T14:28:50;15.70;;;11.40;;
61135;SDS011;47021;51.340;12.432;2022-08-19T14:31:16;16.25;;;12.25;;
61135;SDS011;47021;51.340;12.432;2022-08-19T14:33:41;16.00;;;11.80;;
61135;SDS011;47021;51.340;12.432;2022-08-19T14:38:41;17.42;;;12.35;;
61135;SDS011;47021;51.340;12.432;2022-08-19T14:41:14;16.27;;;10.95;;
61135;SDS011;47021;51.340;12.432;2022-08-19T14:43:43;13.50;;;10.82;;
61135;SDS011;47021;51.340;12.432;2022-08-19T14:46:17;12.95;;;10.10;;
61135;SDS011;47021;51.340;12.432;2022-08-19T14:48:52;19.38;;;10.02;;
61135;SDS011;47021;51.340;12.432;2022-08-19T14:51:18;14.23;;;12.45;;
61135;SDS011;47021;51.340;12.432;2022-08-19T14:53:46;11.48;;;9.88;;
61135;SDS011;47021;51.340;12.432;2022-08-19T14:56:13;12.25;;;9.82;;
61135;SDS011;47021;51.340;12.432;2022-08-19T14:58:43;10.80;;;9.65;;
61135;SDS011;47021;51.340;12.432;2022-08-19T15:01:10;12.52;;;9.63;;
61135;SDS011;47021;51.340;12.432;2022-08-19T15:03:37;11.32;;;9.30;;
61135;SDS011;47021;51.340;12.432;2022-08-19T15:06:04;13.77;;;8.90;;
61135;SDS011;47021;51.340;12.432;2022-08-19T15:08:31;10.40;;;8.68;;
61135;SDS011;47021;51.340;12.432;2022-08-19T15:10:59;11.77;;;9.00;;
61135;SDS011;47021;51.340;12.432;2022-08-19T15:13:25;11.43;;;9.05;;
61135;SDS011;47021;51.340;12.432;2022-08-19T15:15:51;11.07;;;9.50;;
61135;SDS011;47021;51.340;12.432;2022-08-19T15:18:25;12.10;;;9.25;;
61135;SDS011;47021;51.340;12.432;2022-08-19T15:20:50;12.35;;;8.57;;
61135;SDS011;47021;51.340;12.432;2022-08-19T15:23:16;8.70;;;7.90;;
61135;SDS011;47021;51.340;12.432;2022-08-19T15:25:42;11.68;;;8.48;;
61135;SDS011;47021;51.340;12.432;2022-08-19T15:28:07;15.45;;;8.50;;
61135;SDS011;47021;51.340;12.432;2022-08-19T15:30:45;12.70;;;9.80;;
61135;SDS011;47021;51.340;12.432;2022-08-19T15:33:11;19.95;;;12.00;;
61135;SDS011;47021;51.340;12.432;2022-08-19T15:35:37;12.98;;;11.20;;
61135;SDS011;47021;51.340;12.432;2022-08-19T15:38:03;19.42;;;13.07;;
61135;SDS011;47021;51.340;12.432;2022-08-19T15:40:28;18.48;;;11.70;;
61135;SDS011;47021;51.340;12.432;2022-08-19T15:42:54;22.35;;;13.65;;
61135;SDS011;47021;51.340;12.432;2022-08-19T15:45:21;22.67;;;13.75;;
61135;SDS011;47021;51.340;12.432;2022-08-19T15:47:48;22.40;;;14.77;;
61135;SDS011;47021;51.340;12.432;2022-08-19T15:50:23;20.85;;;14.88;;
61135;SDS011;47021;51.340;12.432;2022-08-19T15:52:53;18.70;;;16.08;;
61135;SDS011;47021;51.340;12.432;2022-08-19T15:57:51;18.30;;;13.93;;
61135;SDS011;47021;51.340;12.432;2022-08-19T16:00:18;23.30;;;16.60;;
61135;SDS011;47021;51.340;12.432;2022-08-19T16:02:46;29.88;;;15.68;;
61135;SDS011;47021;51.340;12.432;2022-08-19T16:08:02;20.30;;;14.75;;
61135;SDS011;47021;51.340;12.432;2022-08-19T16:10:30;17.65;;;13.25;;
61135;SDS011;47021;51.340;12.432;2022-08-19T16:12:56;15.40;;;13.80;;
61135;SDS011;47021;51.340;12.432;2022-08-19T16:15:23;21.85;;;15.05;;
61135;SDS011;47021;51.340;12.432;2022-08-19T16:18:01;18.77;;;14.48;;
61135;SDS011;47021;51.340;12.432;2022-08-19T16:20:32;17.75;;;14.40;;